createdAt,value
2019-04-10T00:01:07.826Z,100.00
2019-04-10T00:03:41.716Z,100.00
2019-04-10T00:06:15.266Z,100.00
2019-04-10T00:08:48.524Z,100.00
2019-04-10T00:11:20.689Z,100.00
2019-04-10T00:13:53.260Z,100.00
2019-04-10T00:16:25.345Z,100.00
2019-04-10T00:18:58.070Z,100.00
2019-04-10T00:21:29.816Z,100.00
2019-04-10T00:24:01.947Z,100.00
2019-04-10T00:26:34.065Z,100.00
2019-04-10T00:29:08.958Z,100.00
2019-04-10T00:31:40.430Z,100.00
2019-04-10T00:34:15.656Z,100.00
2019-04-10T00:36:47.311Z,100.00
2019-04-10T00:39:23.075Z,100.00
2019-04-10T00:41:54.727Z,100.00
2019-04-10T00:44:35.840Z,100.00
2019-04-10T00:47:07.782Z,100.00
2019-04-10T00:49:46.691Z,100.00
2019-04-10T00:52:18.348Z,100.00
2019-04-10T00:54:56.039Z,100.00
2019-04-10T00:57:27.555Z,100.00
2019-04-10T01:00:04.347Z,100.00
2019-04-10T01:02:36.559Z,100.00
2019-04-10T01:05:13.727Z,100.00
2019-04-10T01:07:45.963Z,100.00
2019-04-10T01:10:23.112Z,100.00
2019-04-10T01:12:54.519Z,100.00
2019-04-10T01:15:31.522Z,100.00
2019-04-10T01:18:03.010Z,100.00
2019-04-10T01:20:34.544Z,100.00
2019-04-10T01:23:06.108Z,100.00
2019-04-10T01:25:40.858Z,100.00
2019-04-10T01:28:12.309Z,100.00
2019-04-10T01:30:50.793Z,100.00
2019-04-10T01:33:22.782Z,100.00
2019-04-10T01:36:00.295Z,100.00
2019-04-10T01:38:31.680Z,100.00
2019-04-10T01:41:06.195Z,100.00
2019-04-10T01:43:37.796Z,100.00
2019-04-10T01:46:15.905Z,100.00
2019-04-10T01:48:47.474Z,100.00
2019-04-10T01:51:23.570Z,100.00
2019-04-10T01:53:55.769Z,100.00
2019-04-10T01:56:34.439Z,100.00
2019-04-10T01:59:03.878Z,100.00
2019-04-10T02:01:52.339Z,100.00
2019-04-10T02:04:24.801Z,100.00
2019-04-10T02:07:05.572Z,100.00
2019-04-10T02:09:37.418Z,100.00
2019-04-10T02:12:09.126Z,100.00
2019-04-10T02:14:40.852Z,100.00
2019-04-10T02:17:18.339Z,100.00
2019-04-10T02:19:50.265Z,100.00
2019-04-10T02:22:40.473Z,100.00
2019-04-10T02:25:13.816Z,100.00
2019-04-10T02:27:45.228Z,100.00
2019-04-10T02:30:19.581Z,100.00
2019-04-10T02:32:54.585Z,100.00
2019-04-10T02:35:27.451Z,100.00
2019-04-10T02:38:22.888Z,100.00
2019-04-10T02:40:37.367Z,100.00
2019-04-10T02:43:10.314Z,100.00
2019-04-10T02:46:02.158Z,100.00
2019-04-10T02:48:34.053Z,100.00
2019-04-10T02:51:05.665Z,100.00
2019-04-10T02:53:39.203Z,100.00
2019-04-10T02:56:11.760Z,100.00
2019-04-10T02:58:47.187Z,100.00
2019-04-10T03:01:20.545Z,100.00
2019-04-10T03:03:53.096Z,100.00
2019-04-10T03:06:27.038Z,100.00
2019-04-10T03:09:19.042Z,100.00
2019-04-10T03:11:36.017Z,100.00
2019-04-10T03:14:14.817Z,100.00
2019-04-10T03:16:47.818Z,100.00
2019-04-10T03:19:29.620Z,100.00
2019-04-10T03:22:01.860Z,100.00
2019-04-10T03:24:33.818Z,100.00
2019-04-10T03:27:05.846Z,100.00
2019-04-10T03:29:49.810Z,100.00
2019-04-10T03:32:45.702Z,100.00
2019-04-10T03:35:20.706Z,100.00
2019-04-10T03:37:52.902Z,100.00
2019-04-10T03:40:24.379Z,100.00
2019-04-10T03:42:55.725Z,100.00
2019-04-10T03:45:27.088Z,100.00
2019-04-10T03:47:58.325Z,100.00
2019-04-10T03:50:30.000Z,100.00
2019-04-10T03:53:02.170Z,100.00
2019-04-10T03:55:40.970Z,100.00
2019-04-10T03:58:13.455Z,100.00
2019-04-10T04:00:45.223Z,100.00
2019-04-10T04:03:16.578Z,100.00
2019-04-10T04:05:53.065Z,100.00
2019-04-10T04:08:25.602Z,100.00
2019-04-10T04:11:01.630Z,100.00
2019-04-10T04:13:33.357Z,100.00
2019-04-10T04:16:04.934Z,100.00
2019-04-10T04:18:37.400Z,100.00
2019-04-10T04:21:09.712Z,100.00
2019-04-10T04:23:41.061Z,100.00
2019-04-10T04:26:12.740Z,100.00
2019-04-10T04:28:44.190Z,100.00
2019-04-10T04:31:18.615Z,100.00
2019-04-10T04:33:50.060Z,100.00
2019-04-10T04:36:21.697Z,100.00
2019-04-10T04:38:53.344Z,100.00
2019-04-10T04:41:25.355Z,100.00
2019-04-10T04:43:57.363Z,100.00
2019-04-10T04:46:30.384Z,100.00
2019-04-10T04:49:02.635Z,100.00
2019-04-10T04:51:34.620Z,100.00
2019-04-10T04:54:06.724Z,100.00
2019-04-10T04:56:38.573Z,100.00
2019-04-10T04:59:10.786Z,100.00
2019-04-10T05:01:42.548Z,100.00
2019-04-10T05:04:15.304Z,100.00
2019-04-10T05:06:47.793Z,100.00
2019-04-10T05:09:30.129Z,100.00
2019-04-10T05:11:53.606Z,100.00
2019-04-10T05:14:25.345Z,100.00
2019-04-10T05:16:57.525Z,100.00
2019-04-10T05:19:29.759Z,100.00
2019-04-10T05:22:01.746Z,100.00
2019-04-10T05:24:33.757Z,100.00
2019-04-10T05:27:05.889Z,100.00
2019-04-10T05:29:38.702Z,100.00
2019-04-10T05:32:11.450Z,100.00
2019-04-10T05:34:44.651Z,100.00
2019-04-10T05:37:16.517Z,100.00
2019-04-10T05:39:50.787Z,100.00
2019-04-10T05:42:23.278Z,96.62
2019-04-10T05:44:56.452Z,91.01
2019-04-10T05:47:30.248Z,89.99
2019-04-10T05:50:02.129Z,89.83
2019-04-10T05:52:35.318Z,94.10
2019-04-10T05:55:08.531Z,98.33
2019-04-10T05:57:43.533Z,100.00
2019-04-10T06:00:17.099Z,100.00
2019-04-10T06:02:50.188Z,100.00
2019-04-10T06:05:22.419Z,100.00
2019-04-10T06:07:54.059Z,100.00
2019-04-10T06:10:26.734Z,100.00
2019-04-10T06:12:58.502Z,100.00
2019-04-10T06:15:30.774Z,100.00
2019-04-10T06:18:02.854Z,100.00
2019-04-10T06:20:35.460Z,100.00
2019-04-10T06:23:07.593Z,100.00
2019-04-10T06:25:41.493Z,100.00
2019-04-10T06:28:13.077Z,100.00
2019-04-10T06:30:45.019Z,100.00
2019-04-10T06:33:17.950Z,100.00
2019-04-10T06:35:50.912Z,100.00
2019-04-10T06:38:23.143Z,100.00
2019-04-10T06:40:55.455Z,100.00
2019-04-10T06:43:26.935Z,100.00
2019-04-10T06:45:58.750Z,100.00
2019-04-10T06:48:30.751Z,100.00
2019-04-10T06:51:02.513Z,100.00
2019-04-10T06:53:35.193Z,100.00
2019-04-10T06:56:07.203Z,100.00
2019-04-10T06:58:40.906Z,100.00
2019-04-10T07:01:12.613Z,100.00
2019-04-10T07:03:52.807Z,100.00
2019-04-10T07:06:21.884Z,100.00
2019-04-10T07:08:53.312Z,100.00
2019-04-10T07:11:30.448Z,100.00
2019-04-10T07:13:59.852Z,100.00
2019-04-10T07:16:33.845Z,100.00
2019-04-10T07:19:08.741Z,100.00
2019-04-10T07:21:39.254Z,100.00
2019-04-10T07:24:14.690Z,100.00
2019-04-10T07:26:47.611Z,100.00
2019-04-10T07:29:21.022Z,100.00
2019-04-10T07:31:52.833Z,100.00
2019-04-10T07:34:27.921Z,100.00
2019-04-10T07:36:58.612Z,100.00
2019-04-10T07:39:33.463Z,100.00
2019-04-10T07:42:04.706Z,100.00
2019-04-10T07:44:36.795Z,100.00
2019-04-10T07:47:09.125Z,100.00
2019-04-10T07:49:41.933Z,100.00
2019-04-10T07:52:14.172Z,100.00
2019-04-10T07:54:46.460Z,100.00
2019-04-10T07:57:18.371Z,99.25
2019-04-10T07:59:50.503Z,98.08
2019-04-10T08:02:23.315Z,96.68
2019-04-10T08:04:55.909Z,97.14
2019-04-10T08:07:32.570Z,96.42
2019-04-10T08:10:01.485Z,97.14
2019-04-10T08:12:43.309Z,94.68
2019-04-10T08:15:13.451Z,92.76
2019-04-10T08:17:49.027Z,90.53
2019-04-10T08:20:22.071Z,91.87
2019-04-10T08:22:53.979Z,88.59
2019-04-10T08:25:31.324Z,86.36
2019-04-10T08:28:03.701Z,86.57
2019-04-10T08:30:43.957Z,84.44
2019-04-10T08:33:16.122Z,82.45
2019-04-10T08:35:50.923Z,77.54
2019-04-10T08:38:23.911Z,78.16
2019-04-10T08:41:00.736Z,76.24
2019-04-10T08:43:34.672Z,74.71
2019-04-10T08:46:10.747Z,75.00
2019-04-10T08:48:43.416Z,70.37
2019-04-10T08:51:30.989Z,70.27
2019-04-10T08:54:00.552Z,69.06
2019-04-10T08:56:59.559Z,70.83
2019-04-10T08:59:31.932Z,70.37
2019-04-10T09:02:04.478Z,66.01
2019-04-10T09:04:37.009Z,65.81
2019-04-10T09:07:09.908Z,59.88
2019-04-10T09:09:41.898Z,55.93
2019-04-10T09:12:15.700Z,54.06
2019-04-10T09:14:48.027Z,59.70
2019-04-10T09:17:19.821Z,54.10
2019-04-10T09:19:52.121Z,58.99
2019-04-10T09:22:24.664Z,56.59
2019-04-10T09:24:58.494Z,63.30
2019-04-10T09:27:30.551Z,65.75
2019-04-10T09:30:02.758Z,64.61
2019-04-10T09:32:42.374Z,64.76
2019-04-10T09:35:14.884Z,67.37
2019-04-10T09:38:07.380Z,61.10
2019-04-10T09:40:40.255Z,56.67
2019-04-10T09:43:15.690Z,59.27
2019-04-10T09:45:48.086Z,57.38
2019-04-10T09:48:20.020Z,63.12
2019-04-10T09:50:52.646Z,59.90
2019-04-10T09:53:26.749Z,59.93
2019-04-10T09:55:59.459Z,61.59
2019-04-10T09:58:37.325Z,64.66
2019-04-10T10:01:14.702Z,61.40
2019-04-10T10:03:46.563Z,56.55
2019-04-10T10:06:27.337Z,56.73
2019-04-10T10:08:58.516Z,57.42
2019-04-10T10:11:30.776Z,54.68
2019-04-10T10:14:06.618Z,55.56
2019-04-10T10:16:38.614Z,57.26
2019-04-10T10:19:14.199Z,57.60
2019-04-10T10:21:48.352Z,57.00
2019-04-10T10:24:30.910Z,55.32
2019-04-10T10:27:03.635Z,56.10
2019-04-10T10:29:41.928Z,56.91
2019-04-10T10:32:15.010Z,57.30
2019-04-10T10:34:47.001Z,55.29
2019-04-10T10:37:18.862Z,53.64
2019-04-10T10:39:53.348Z,52.56
2019-04-10T10:42:29.689Z,51.16
2019-04-10T10:45:06.879Z,47.87
2019-04-10T10:47:40.176Z,46.88
2019-04-10T10:50:23.937Z,41.56
2019-04-10T10:52:57.569Z,40.59
2019-04-10T10:55:29.899Z,42.15
2019-04-10T10:58:02.260Z,47.92
2019-04-10T11:00:36.934Z,51.00
2019-04-10T11:03:09.808Z,49.50
2019-04-10T11:05:51.045Z,47.89
2019-04-10T11:08:24.059Z,51.34
2019-04-10T11:11:00.822Z,49.89
2019-04-10T11:13:33.299Z,46.11
2019-04-10T11:16:07.372Z,46.78
2019-04-10T11:18:40.367Z,46.73
2019-04-10T11:21:14.084Z,49.46
2019-04-10T11:23:46.863Z,49.49
2019-04-10T11:26:22.311Z,50.41
2019-04-10T11:28:53.380Z,44.40
2019-04-10T11:31:25.426Z,43.50
2019-04-10T11:33:58.215Z,42.28
2019-04-10T11:36:32.350Z,41.26
2019-04-10T11:39:14.979Z,42.15
2019-04-10T11:41:41.354Z,43.15
2019-04-10T11:44:16.428Z,42.47
2019-04-10T11:46:49.387Z,47.04
2019-04-10T11:49:22.905Z,43.90
2019-04-10T11:51:59.424Z,43.47
2019-04-10T11:54:31.691Z,44.93
2019-04-10T11:57:05.973Z,44.14
2019-04-10T11:59:38.397Z,44.76
2019-04-10T12:02:12.003Z,46.72
2019-04-10T12:04:52.995Z,47.04
2019-04-10T12:07:52.980Z,45.08
2019-04-10T12:12:28.007Z,38.65
2019-04-10T12:15:00.051Z,42.50
2019-04-10T12:17:33.876Z,42.53
2019-04-10T12:20:07.050Z,39.51
2019-04-10T12:22:39.325Z,37.03
2019-04-10T12:25:12.380Z,41.56
2019-04-10T12:27:45.282Z,41.11
2019-04-10T12:30:20.356Z,35.48
2019-04-10T12:32:54.708Z,35.15
2019-04-10T12:35:26.621Z,34.43
2019-04-10T12:38:02.848Z,38.84
2019-04-10T12:40:37.964Z,36.65
2019-04-10T12:43:10.752Z,37.04
2019-04-10T12:45:44.408Z,39.40
2019-04-10T12:48:16.765Z,39.99
2019-04-10T12:50:49.637Z,38.54
2019-04-10T12:53:24.816Z,36.70
2019-04-10T12:55:57.718Z,38.53
2019-04-10T12:58:30.814Z,37.17
2019-04-10T13:01:03.200Z,38.50
2019-04-10T13:03:35.595Z,40.89
2019-04-10T13:06:07.902Z,40.79
2019-04-10T13:08:52.614Z,40.12
2019-04-10T13:11:13.945Z,40.04
2019-04-10T13:13:46.339Z,42.77
2019-04-10T13:16:20.345Z,45.16
2019-04-10T13:18:52.461Z,44.34
2019-04-10T13:21:28.544Z,44.97
2019-04-10T13:24:01.444Z,44.41
2019-04-10T13:26:41.940Z,44.06
2019-04-10T13:29:14.202Z,43.69
2019-04-10T13:31:55.885Z,41.57
2019-04-10T13:34:29.053Z,40.51
2019-04-10T13:37:02.094Z,40.41
2019-04-10T13:39:34.918Z,39.58
2019-04-10T13:42:07.312Z,38.80
2019-04-10T13:44:40.431Z,38.14
2019-04-10T13:47:13.415Z,37.82
2019-04-10T13:49:46.250Z,38.26
2019-04-10T13:52:18.407Z,41.34
2019-04-10T13:54:50.634Z,38.05
2019-04-10T13:57:22.828Z,38.48
2019-04-10T13:59:55.403Z,36.44
2019-04-10T14:02:39.525Z,35.65
2019-04-10T14:05:14.302Z,34.84
2019-04-10T14:07:46.362Z,36.60
2019-04-10T14:10:20.619Z,34.51
2019-04-10T14:12:56.374Z,35.26
2019-04-10T14:15:30.271Z,36.29
2019-04-10T14:18:02.888Z,39.30
2019-04-10T14:20:35.428Z,41.82
2019-04-10T14:23:20.262Z,39.01
2019-04-10T14:26:04.540Z,41.23
2019-04-10T14:28:37.518Z,43.46
2019-04-10T14:31:20.186Z,43.62
2019-04-10T14:33:53.205Z,47.98
2019-04-10T14:36:40.200Z,45.06
2019-04-10T14:39:10.345Z,44.78
2019-04-10T14:41:33.769Z,46.55
2019-04-10T14:44:06.143Z,45.96
2019-04-10T14:46:38.182Z,46.95
2019-04-10T14:49:11.471Z,46.76
2019-04-10T14:51:44.326Z,47.24
2019-04-10T14:54:16.557Z,45.98
2019-04-10T14:56:48.854Z,44.39
2019-04-10T14:59:22.077Z,44.77
2019-04-10T15:01:54.559Z,44.50
2019-04-10T15:04:28.900Z,44.09
2019-04-10T15:07:01.912Z,43.98
2019-04-10T15:09:34.676Z,44.14
2019-04-10T15:12:10.075Z,45.29
2019-04-10T15:14:43.634Z,44.67
2019-04-10T15:17:16.879Z,44.95
2019-04-10T15:19:50.684Z,47.67
2019-04-10T15:22:23.551Z,48.38
2019-04-10T15:24:57.341Z,48.07
2019-04-10T15:27:30.225Z,47.13
2019-04-10T15:30:04.291Z,46.59
2019-04-10T15:32:37.802Z,45.96
2019-04-10T15:35:10.455Z,47.40
2019-04-10T15:37:43.540Z,47.41
2019-04-10T15:40:21.668Z,48.03
2019-04-10T15:42:52.371Z,47.99
2019-04-10T15:45:25.950Z,49.04
2019-04-10T15:48:00.498Z,49.04
2019-04-10T15:50:36.330Z,50.06
2019-04-10T15:53:09.727Z,51.26
2019-04-10T15:55:43.317Z,51.41
2019-04-10T15:58:15.605Z,51.83
2019-04-10T16:00:50.242Z,52.46
2019-04-10T16:03:30.330Z,52.42
2019-04-10T16:06:03.912Z,53.77
2019-04-10T16:08:36.571Z,54.55
2019-04-10T16:11:34.076Z,55.64
2019-04-10T16:14:20.005Z,56.28
2019-04-10T16:17:03.231Z,57.43
2019-04-10T16:19:42.988Z,58.60
2019-04-10T16:22:25.603Z,60.89
2019-04-10T16:25:01.170Z,61.21
2019-04-10T16:27:33.766Z,62.37
2019-04-10T16:30:08.224Z,62.73
2019-04-10T16:32:40.415Z,62.85
2019-04-10T16:35:17.456Z,62.88
2019-04-10T16:37:49.794Z,61.27
2019-04-10T16:40:22.690Z,61.75
2019-04-10T16:42:55.200Z,62.95
2019-04-10T16:45:30.699Z,65.03
2019-04-10T16:48:03.155Z,66.03
2019-04-10T16:50:36.389Z,66.74
2019-04-10T16:53:09.782Z,67.83
2019-04-10T16:55:43.094Z,67.50
2019-04-10T16:58:15.970Z,67.86
2019-04-10T17:00:49.710Z,67.93
2019-04-10T17:03:22.150Z,67.12
2019-04-10T17:05:55.565Z,67.61
2019-04-10T17:08:28.633Z,68.33
2019-04-10T17:11:01.301Z,67.77
2019-04-10T17:13:34.930Z,68.58
2019-04-10T17:16:11.447Z,70.45
2019-04-10T17:18:45.511Z,71.89
2019-04-10T17:21:26.630Z,72.42
2019-04-10T17:23:53.228Z,73.19
2019-04-10T17:26:26.710Z,73.19
2019-04-10T17:29:00.785Z,73.27
2019-04-10T17:31:33.269Z,76.62
2019-04-10T17:34:06.155Z,82.64
2019-04-10T17:36:38.883Z,85.19
2019-04-10T17:39:17.898Z,87.21
2019-04-10T17:41:53.322Z,89.03
2019-04-10T17:44:25.805Z,90.47
2019-04-10T17:46:59.555Z,92.12
2019-04-10T17:49:33.774Z,93.23
2019-04-10T17:52:06.564Z,93.54
2019-04-10T17:54:41.491Z,94.28
2019-04-10T17:57:13.258Z,94.65
2019-04-10T17:59:45.186Z,98.66
2019-04-10T18:02:17.780Z,99.82
2019-04-10T18:04:56.024Z,100.00
2019-04-10T18:07:30.235Z,100.00
2019-04-10T18:10:02.453Z,100.00
2019-04-10T18:12:34.179Z,100.00
2019-04-10T18:15:06.507Z,100.00
2019-04-10T18:17:38.732Z,100.00
2019-04-10T18:20:10.918Z,100.00
2019-04-10T18:22:42.885Z,100.00
2019-04-10T18:25:15.828Z,100.00
2019-04-10T18:27:49.029Z,100.00
2019-04-10T18:30:21.718Z,100.00
2019-04-10T18:32:55.909Z,99.33
2019-04-10T18:35:29.200Z,98.34
2019-04-10T18:38:01.531Z,98.53
2019-04-10T18:40:34.975Z,97.90
2019-04-10T18:43:07.714Z,99.10
2019-04-10T18:45:42.111Z,100.00
2019-04-10T18:48:14.573Z,100.00
2019-04-10T18:50:47.471Z,100.00
2019-04-10T18:53:19.557Z,100.00
2019-04-10T18:55:52.311Z,100.00
2019-04-10T18:58:29.657Z,100.00
2019-04-10T19:01:21.088Z,100.00
2019-04-10T19:04:18.408Z,100.00
2019-04-10T19:06:57.114Z,100.00
2019-04-10T19:09:32.475Z,100.00
2019-04-10T19:12:04.484Z,100.00
2019-04-10T19:14:37.492Z,100.00
2019-04-10T19:17:11.236Z,100.00
2019-04-10T19:19:45.417Z,100.00
2019-04-10T19:22:18.154Z,100.00
2019-04-10T19:24:52.477Z,100.00
2019-04-10T19:27:25.538Z,100.00
2019-04-10T19:29:59.332Z,100.00
2019-04-10T19:32:35.399Z,100.00
2019-04-10T19:35:08.710Z,100.00
2019-04-10T19:37:40.857Z,100.00
2019-04-10T19:40:13.859Z,100.00
2019-04-10T19:42:46.623Z,100.00
2019-04-10T19:45:19.517Z,100.00
2019-04-10T19:47:53.034Z,100.00
2019-04-10T19:50:25.734Z,100.00
2019-04-10T19:53:01.089Z,100.00
2019-04-10T19:55:40.052Z,100.00
2019-04-10T19:58:12.771Z,100.00
2019-04-10T20:00:46.457Z,100.00
2019-04-10T20:03:19.586Z,100.00
2019-04-10T20:05:53.367Z,100.00
2019-04-10T20:08:25.911Z,100.00
2019-04-10T20:10:58.709Z,100.00
2019-04-10T20:13:30.923Z,100.00
2019-04-10T20:16:07.249Z,100.00
2019-04-10T20:18:41.093Z,100.00
2019-04-10T20:21:13.977Z,100.00
2019-04-10T20:23:47.991Z,100.00
2019-04-10T20:26:21.045Z,100.00
2019-04-10T20:28:53.447Z,100.00
2019-04-10T20:31:28.999Z,100.00
2019-04-10T20:34:01.262Z,100.00
2019-04-10T20:36:35.188Z,100.00
2019-04-10T20:39:09.518Z,100.00
2019-04-10T20:41:49.843Z,100.00
2019-04-10T20:44:16.775Z,100.00
2019-04-10T20:46:49.065Z,100.00
2019-04-10T20:49:21.085Z,100.00
2019-04-10T20:51:53.658Z,100.00
2019-04-10T20:54:26.141Z,100.00
2019-04-10T20:56:59.105Z,100.00
2019-04-10T20:59:31.001Z,100.00
2019-04-10T21:02:04.092Z,100.00
2019-04-10T21:04:40.681Z,100.00
2019-04-10T21:07:13.050Z,100.00
2019-04-10T21:09:45.059Z,100.00
2019-04-10T21:12:20.530Z,100.00
2019-04-10T21:15:01.359Z,100.00
2019-04-10T21:17:34.125Z,100.00
2019-04-10T21:20:07.847Z,100.00
2019-04-10T21:22:40.409Z,100.00
2019-04-10T21:25:15.571Z,100.00
2019-04-10T21:27:50.443Z,100.00
2019-04-10T21:30:44.403Z,100.00
2019-04-10T21:33:24.714Z,100.00
2019-04-10T21:35:57.838Z,100.00
2019-04-10T21:38:30.292Z,100.00
2019-04-10T21:41:02.431Z,100.00
2019-04-10T21:43:35.095Z,100.00
2019-04-10T21:46:08.238Z,100.00
2019-04-10T21:48:40.760Z,100.00
2019-04-10T21:51:13.386Z,100.00
2019-04-10T21:53:45.201Z,100.00
2019-04-10T21:56:18.072Z,100.00
2019-04-10T21:58:49.850Z,100.00
2019-04-10T22:01:30.356Z,100.00
2019-04-10T22:04:03.094Z,100.00
2019-04-10T22:06:57.666Z,100.00
2019-04-10T22:09:45.666Z,100.00
2019-04-10T22:12:31.175Z,100.00
2019-04-10T22:14:58.622Z,100.00
2019-04-10T22:17:32.031Z,100.00
2019-04-10T22:20:03.816Z,100.00
2019-04-10T22:22:35.491Z,100.00
2019-04-10T22:25:08.257Z,100.00
2019-04-10T22:27:39.979Z,100.00
2019-04-10T22:30:12.524Z,100.00
2019-04-10T22:32:44.318Z,100.00
2019-04-10T22:35:17.208Z,100.00
2019-04-10T22:37:50.336Z,100.00
2019-04-10T22:40:23.518Z,100.00
2019-04-10T22:42:57.429Z,100.00
2019-04-10T22:45:32.780Z,100.00
2019-04-10T22:48:08.436Z,100.00
2019-04-10T22:50:40.138Z,100.00
2019-04-10T22:53:15.231Z,100.00
2019-04-10T22:55:50.456Z,100.00
2019-04-10T22:58:22.167Z,100.00
2019-04-10T23:00:53.883Z,100.00
2019-04-10T23:03:30.170Z,100.00
2019-04-10T23:06:02.194Z,100.00
2019-04-10T23:08:37.974Z,100.00
2019-04-10T23:11:09.885Z,100.00
2019-04-10T23:13:45.865Z,100.00
2019-04-10T23:16:17.045Z,100.00
2019-04-10T23:18:48.170Z,100.00
2019-04-10T23:21:20.664Z,100.00
2019-04-10T23:23:52.414Z,100.00
2019-04-10T23:26:24.836Z,100.00
2019-04-10T23:29:00.001Z,100.00
2019-04-10T23:31:31.964Z,100.00
2019-04-10T23:34:04.185Z,100.00
2019-04-10T23:36:35.734Z,100.00
2019-04-10T23:39:10.109Z,100.00
2019-04-10T23:41:42.549Z,100.00
2019-04-10T23:44:14.720Z,100.00
2019-04-10T23:46:47.454Z,100.00
2019-04-10T23:49:19.566Z,100.00
2019-04-10T23:51:51.705Z,100.00
2019-04-10T23:54:23.418Z,100.00
2019-04-10T23:56:55.086Z,100.00
2019-04-10T23:59:26.881Z,100.00
